Time;durP1;ratioP1;P1;durP2;ratioP2;P2;SDS_P1;SDS_P2;PMS_P1;PMS_P2;Temp;Humidity;BMP_temperature;BMP_pressure;BME280_temperature;BME280_humidity;BME280_pressure;Samples;Min_cycle;Max_cycle;Signal;HPM_P1;HPM_P2
2022/07/12 00:02:02;;;;;;;4.03;2.58;;;;;;;;;;4998844;28;20092;-83
2022/07/12 00:04:28;;;;;;;4.30;3.00;;;;;;;;;;4999517;28;20129;-82
2022/07/12 00:06:54;;;;;;;4.75;3.30;;;;;;;;;;5006029;28;20046;-82
2022/07/12 00:09:21;;;;;;;5.55;3.75;;;;;;;;;;5006823;28;20041;-82
2022/07/12 00:11:47;;;;;;;5.65;3.20;;;;;;;;;;4986971;28;20456;-82
2022/07/12 00:14:14;;;;;;;5.50;3.33;;;;;;;;;;4992062;28;20092;-83
2022/07/12 00:16:41;;;;;;;5.35;3.40;;;;;;;;;;5002841;28;20046;-83
2022/07/12 00:19:07;;;;;;;59.55;4.07;;;;;;;;;;5008524;28;20037;-83
2022/07/12 00:21:33;;;;;;;12.65;4.15;;;;;;;;;;4981428;28;20060;-83
2022/07/12 00:23:59;;;;;;;9.15;3.67;;;;;;;;;;4980215;28;20046;-83
2022/07/12 00:26:25;;;;;;;360.83;12.15;;;;;;;;;;4982995;28;20384;-83
2022/07/12 00:28:51;;;;;;;34.80;4.32;;;;;;;;;;4999955;28;20124;-83
2022/07/12 00:31:17;;;;;;;200.13;6.85;;;;;;;;;;4999353;28;20041;-82
2022/07/12 00:33:43;;;;;;;45.35;3.35;;;;;;;;;;5022167;28;20045;-82
2022/07/12 00:36:09;;;;;;;288.20;8.77;;;;;;;;;;4997814;28;20057;-82
2022/07/12 00:38:35;;;;;;;156.63;6.05;;;;;;;;;;4979609;28;20042;-82
2022/07/12 00:41:01;;;;;;;59.95;3.58;;;;;;;;;;5006595;28;20133;-82
2022/07/12 00:43:28;;;;;;;13.75;3.03;;;;;;;;;;5000133;28;20037;-82
2022/07/12 00:45:54;;;;;;;18.05;3.40;;;;;;;;;;5013726;28;20041;-82
2022/07/12 00:48:20;;;;;;;33.00;3.67;;;;;;;;;;4996974;28;20114;-82
2022/07/12 00:50:47;;;;;;;46.30;4.05;;;;;;;;;;5001837;28;20048;-82
2022/07/12 00:53:14;;;;;;;21.25;3.72;;;;;;;;;;4995645;28;20046;-82
2022/07/12 00:55:40;;;;;;;19.20;3.30;;;;;;;;;;4990690;28;20130;-82
2022/07/12 00:58:06;;;;;;;6.10;3.45;;;;;;;;;;4995210;28;20038;-82
2022/07/12 01:00:32;;;;;;;8.15;4.20;;;;;;;;;;4998240;28;20399;-82
2022/07/12 01:03:00;;;;;;;6.22;3.70;;;;;;;;;;5002671;28;20046;-82
2022/07/12 01:05:29;;;;;;;5.90;3.65;;;;;;;;;;5016275;28;20045;-82
2022/07/12 01:07:56;;;;;;;8.57;4.45;;;;;;;;;;5016654;28;20050;-82
2022/07/12 01:10:23;;;;;;;7.80;4.50;;;;;;;;;;4997178;28;20044;-82
2022/07/12 01:12:49;;;;;;;3.67;2.65;;;;;;;;;;5005313;28;20057;-82
2022/07/12 01:15:16;;;;;;;5.90;2.90;;;;;;;;;;4999946;28;20038;-73
2022/07/12 01:17:44;;;;;;;97.63;3.90;;;;;;;;;;4999294;28;20152;-73
2022/07/12 01:20:11;;;;;;;259.67;6.60;;;;;;;;;;5007757;28;20494;-73
2022/07/12 01:22:40;;;;;;;156.32;5.45;;;;;;;;;;5001355;28;20100;-73
2022/07/12 01:25:07;;;;;;;24.05;2.40;;;;;;;;;;5007104;28;20077;-73
2022/07/12 01:27:33;;;;;;;6.30;2.97;;;;;;;;;;5005387;28;20062;-73
2022/07/12 01:30:00;;;;;;;5.45;3.05;;;;;;;;;;4981798;28;20052;-74
2022/07/12 01:32:28;;;;;;;7.55;3.38;;;;;;;;;;4999539;28;20402;-73
2022/07/12 01:34:55;;;;;;;11.60;3.63;;;;;;;;;;5010542;28;20045;-73
2022/07/12 01:37:22;;;;;;;40.95;4.07;;;;;;;;;;4998667;28;20046;-72
2022/07/12 01:39:49;;;;;;;66.50;4.38;;;;;;;;;;4997724;28;20045;-73
2022/07/12 01:42:15;;;;;;;79.57;3.17;;;;;;;;;;4998876;28;20036;-73
2022/07/12 01:44:42;;;;;;;54.97;2.97;;;;;;;;;;5003977;28;20491;-73
2022/07/12 01:47:08;;;;;;;24.63;3.00;;;;;;;;;;4997465;28;20080;-73
2022/07/12 01:49:34;;;;;;;27.70;3.65;;;;;;;;;;5001179;28;20117;-73
2022/07/12 01:52:00;;;;;;;125.05;5.70;;;;;;;;;;5005262;28;20041;-73
2022/07/12 01:54:26;;;;;;;299.58;7.28;;;;;;;;;;4995069;28;20072;-73
2022/07/12 01:56:52;;;;;;;113.30;4.40;;;;;;;;;;5002457;28;20046;-73
2022/07/12 01:59:22;;;;;;;173.98;5.40;;;;;;;;;;4998389;28;20046;-73
2022/07/12 02:01:48;;;;;;;18.80;2.78;;;;;;;;;;4981623;28;20050;-73
2022/07/12 02:04:18;;;;;;;294.83;7.03;;;;;;;;;;5002153;28;20129;-72
2022/07/12 02:06:45;;;;;;;134.57;4.90;;;;;;;;;;4994531;28;20181;-73
2022/07/12 02:09:12;;;;;;;20.48;3.30;;;;;;;;;;5006235;28;20041;-73
2022/07/12 02:11:38;;;;;;;10.43;3.38;;;;;;;;;;5005371;28;20125;-74
2022/07/12 02:14:04;;;;;;;7.80;3.58;;;;;;;;;;4996831;28;20116;-74
2022/07/12 02:16:31;;;;;;;21.05;4.20;;;;;;;;;;5010466;28;20037;-73
2022/07/12 02:18:57;;;;;;;15.77;2.80;;;;;;;;;;5003069;28;20528;-74
2022/07/12 02:21:23;;;;;;;198.18;5.90;;;;;;;;;;4999923;28;20072;-74
2022/07/12 02:23:49;;;;;;;18.65;3.75;;;;;;;;;;5010016;28;20045;-73
2022/07/12 02:26:15;;;;;;;43.70;4.75;;;;;;;;;;4997952;28;20045;-74
2022/07/12 02:28:41;;;;;;;83.75;4.60;;;;;;;;;;4984207;28;20046;-73
2022/07/12 02:31:08;;;;;;;262.15;6.18;;;;;;;;;;5003932;28;20049;-73
2022/07/12 02:33:34;;;;;;;26.05;2.35;;;;;;;;;;5004224;28;20044;-73
2022/07/12 02:36:01;;;;;;;12.63;1.75;;;;;;;;;;5005954;28;20044;-73
2022/07/12 02:38:27;;;;;;;14.23;2.30;;;;;;;;;;5031883;28;20033;-73
2022/07/12 02:40:53;;;;;;;4.38;3.00;;;;;;;;;;5003747;28;20049;-73
2022/07/12 02:43:23;;;;;;;5.78;2.83;;;;;;;;;;4996181;28;20048;-73
2022/07/12 02:45:50;;;;;;;3.83;2.15;;;;;;;;;;4964460;28;20042;-73
2022/07/12 02:48:16;;;;;;;4.07;2.20;;;;;;;;;;4964935;28;20053;-73
2022/07/12 02:50:42;;;;;;;4.80;2.97;;;;;;;;;;4996605;28;20046;-73
2022/07/12 02:53:08;;;;;;;4.07;2.72;;;;;;;;;;4996509;28;20034;-73
2022/07/12 02:55:35;;;;;;;18.02;2.80;;;;;;;;;;4996442;28;20141;-73
2022/07/12 02:58:01;;;;;;;3.45;1.58;;;;;;;;;;4980589;28;20038;-73
2022/07/12 03:00:28;;;;;;;3.42;2.03;;;;;;;;;;5005502;28;20041;-73
2022/07/12 03:02:54;;;;;;;4.78;2.28;;;;;;;;;;4996458;28;20049;-73
2022/07/12 03:05:20;;;;;;;183.57;5.88;;;;;;;;;;5013348;28;20367;-73
2022/07/12 03:07:46;;;;;;;6.68;3.25;;;;;;;;;;4996350;28;20046;-73
2022/07/12 03:10:12;;;;;;;80.32;3.72;;;;;;;;;;4996896;28;20072;-73
2022/07/12 03:12:39;;;;;;;122.57;4.38;;;;;;;;;;4996231;28;20049;-73
2022/07/12 03:15:06;;;;;;;3.40;1.90;;;;;;;;;;4995977;28;20065;-73
2022/07/12 03:17:33;;;;;;;4.30;2.60;;;;;;;;;;4995875;28;20511;-73
2022/07/12 03:19:59;;;;;;;4.32;2.70;;;;;;;;;;4998586;28;20487;-73
2022/07/12 03:22:25;;;;;;;4.32;2.67;;;;;;;;;;4997839;28;20042;-73
2022/07/12 03:24:51;;;;;;;9.25;3.03;;;;;;;;;;4995966;28;20042;-72
2022/07/12 03:27:17;;;;;;;5.97;3.42;;;;;;;;;;4978380;28;20042;-72
2022/07/12 03:29:43;;;;;;;4.60;2.92;;;;;;;;;;4996220;28;20045;-72
2022/07/12 03:32:09;;;;;;;5.03;3.08;;;;;;;;;;5016995;28;20053;-72
2022/07/12 03:34:36;;;;;;;5.50;3.42;;;;;;;;;;4998585;28;20051;-72
2022/07/12 03:37:03;;;;;;;5.80;3.60;;;;;;;;;;4999023;28;20045;-72
2022/07/12 03:39:29;;;;;;;6.38;3.70;;;;;;;;;;4998756;28;20410;-72
2022/07/12 03:41:55;;;;;;;7.35;4.03;;;;;;;;;;5023415;28;20067;-72
2022/07/12 03:44:21;;;;;;;6.43;3.42;;;;;;;;;;5018367;28;20041;-73
2022/07/12 03:46:47;;;;;;;8.38;4.55;;;;;;;;;;4998463;28;20124;-72
2022/07/12 03:49:13;;;;;;;8.98;4.20;;;;;;;;;;5015247;28;20045;-73
2022/07/12 03:51:39;;;;;;;8.15;4.25;;;;;;;;;;5016686;28;20037;-72
2022/07/12 03:54:07;;;;;;;7.72;4.57;;;;;;;;;;5026461;28;20045;-73
2022/07/12 03:59:22;;;;;;;7.55;4.45;;;;;;;;;;5014729;28;20041;-72
2022/07/12 04:01:48;;;;;;;11.18;4.75;;;;;;;;;;5008165;28;20046;-73
2022/07/12 04:04:15;;;;;;;6.95;4.65;;;;;;;;;;5018429;28;20464;-73
2022/07/12 04:06:41;;;;;;;7.28;4.60;;;;;;;;;;5018939;28;20044;-73
2022/07/12 04:09:07;;;;;;;6.70;4.13;;;;;;;;;;5017516;28;20037;-73
2022/07/12 04:11:33;;;;;;;8.27;4.28;;;;;;;;;;5017262;28;20465;-73
2022/07/12 04:13:59;;;;;;;5.30;3.83;;;;;;;;;;5022648;28;20040;-73
2022/07/12 04:16:26;;;;;;;5.35;3.75;;;;;;;;;;5017099;28;20033;-73
2022/07/12 04:18:53;;;;;;;5.55;3.90;;;;;;;;;;5020382;28;20119;-73
2022/07/12 04:21:20;;;;;;;6.68;3.80;;;;;;;;;;5017393;28;20037;-73
2022/07/12 04:23:46;;;;;;;11.48;2.95;;;;;;;;;;5023268;28;20033;-73
2022/07/12 04:26:12;;;;;;;5.07;3.33;;;;;;;;;;5017401;28;20044;-73
2022/07/12 04:28:38;;;;;;;5.35;3.38;;;;;;;;;;5018006;28;20092;-73
2022/07/12 04:31:04;;;;;;;6.78;3.08;;;;;;;;;;5020693;28;20080;-73
2022/07/12 04:33:30;;;;;;;4.72;3.38;;;;;;;;;;5022728;28;20050;-74
2022/07/12 04:35:56;;;;;;;5.10;3.53;;;;;;;;;;5023221;28;20033;-73
2022/07/12 04:38:22;;;;;;;6.43;3.85;;;;;;;;;;5014016;28;20173;-74
2022/07/12 04:40:48;;;;;;;5.47;3.50;;;;;;;;;;5014223;28;20510;-73
2022/07/12 04:43:14;;;;;;;5.88;3.83;;;;;;;;;;5016405;28;20518;-73
2022/07/12 04:45:43;;;;;;;5.82;3.95;;;;;;;;;;5022462;28;20048;-74
2022/07/12 04:48:10;;;;;;;5.95;4.15;;;;;;;;;;5032572;28;20041;-73
2022/07/12 04:50:36;;;;;;;7.78;5.45;;;;;;;;;;5032913;28;20501;-73
2022/07/12 04:53:02;;;;;;;10.10;5.50;;;;;;;;;;5028665;28;20052;-73
2022/07/12 04:55:28;;;;;;;8.75;5.97;;;;;;;;;;5023739;28;20029;-74
2022/07/12 04:57:54;;;;;;;9.80;6.55;;;;;;;;;;5022877;28;20132;-74
2022/07/12 05:00:21;;;;;;;9.35;6.00;;;;;;;;;;5029500;28;20048;-74
2022/07/12 05:02:47;;;;;;;7.78;5.20;;;;;;;;;;5024225;28;20124;-74
2022/07/12 05:05:14;;;;;;;8.85;5.28;;;;;;;;;;5028063;28;20053;-74
2022/07/12 05:07:40;;;;;;;7.55;5.40;;;;;;;;;;5020939;28;20414;-75
2022/07/12 05:10:06;;;;;;;8.52;5.38;;;;;;;;;;5028648;28;20072;-73
2022/07/12 05:12:32;;;;;;;7.35;5.10;;;;;;;;;;5022846;28;20080;-75
2022/07/12 05:14:58;;;;;;;7.75;4.95;;;;;;;;;;4994606;28;20088;-75
2022/07/12 05:17:24;;;;;;;9.38;5.57;;;;;;;;;;4982369;28;20065;-75
2022/07/12 05:19:51;;;;;;;8.40;5.55;;;;;;;;;;5019248;28;20064;-75
2022/07/12 05:22:17;;;;;;;8.43;5.43;;;;;;;;;;5021508;28;20049;-75
2022/07/12 05:24:43;;;;;;;8.35;5.70;;;;;;;;;;5022528;28;20054;-75
2022/07/12 05:27:09;;;;;;;9.38;6.05;;;;;;;;;;5020933;28;20116;-75
2022/07/12 05:29:35;;;;;;;8.90;5.97;;;;;;;;;;5024355;28;20037;-75
2022/07/12 05:32:02;;;;;;;8.25;5.72;;;;;;;;;;5020984;28;20056;-74
2022/07/12 05:34:28;;;;;;;10.10;5.30;;;;;;;;;;5022387;28;20045;-75
2022/07/12 05:36:55;;;;;;;8.38;5.55;;;;;;;;;;5020000;28;20177;-75
2022/07/12 05:39:21;;;;;;;9.32;5.35;;;;;;;;;;4996497;28;20508;-75
2022/07/12 05:41:47;;;;;;;7.45;4.90;;;;;;;;;;5003480;28;20045;-75
2022/07/12 05:44:13;;;;;;;7.18;5.05;;;;;;;;;;5019331;28;20045;-75
2022/07/12 05:46:40;;;;;;;6.25;4.60;;;;;;;;;;5014386;28;20037;-74
2022/07/12 05:49:07;;;;;;;5.93;4.10;;;;;;;;;;5016046;28;20053;-75
2022/07/12 05:54:17;;;;;;;5.00;4.00;;;;;;;;;;5018288;28;20038;-74
2022/07/12 05:56:44;;;;;;;5.13;4.22;;;;;;;;;;5016500;28;20494;-74
2022/07/12 05:59:10;;;;;;;6.32;3.60;;;;;;;;;;5018949;28;20067;-74
2022/07/12 06:01:36;;;;;;;4.82;3.92;;;;;;;;;;5016395;28;20045;-75
2022/07/12 06:04:02;;;;;;;6.55;3.90;;;;;;;;;;5012107;28;20033;-75
2022/07/12 06:06:28;;;;;;;7.82;4.78;;;;;;;;;;5016039;28;20037;-74
2022/07/12 06:08:54;;;;;;;5.10;4.03;;;;;;;;;;5001136;28;20080;-75
2022/07/12 06:11:20;;;;;;;5.15;4.03;;;;;;;;;;5000785;28;20041;-74
2022/07/12 06:13:46;;;;;;;5.47;3.88;;;;;;;;;;5016842;28;20042;-73
2022/07/12 06:16:12;;;;;;;5.28;3.88;;;;;;;;;;5001133;28;20096;-74
2022/07/12 06:18:38;;;;;;;5.95;4.28;;;;;;;;;;5033668;28;20038;-74
2022/07/12 06:21:05;;;;;;;4.28;3.67;;;;;;;;;;5034609;28;20068;-72
2022/07/12 06:23:31;;;;;;;5.75;3.90;;;;;;;;;;5000232;28;20041;-75
2022/07/12 06:25:57;;;;;;;6.43;3.60;;;;;;;;;;5018138;28;20545;-75
2022/07/12 06:28:23;;;;;;;5.00;3.28;;;;;;;;;;5020796;28;20046;-75
2022/07/12 06:30:49;;;;;;;4.30;3.00;;;;;;;;;;5015924;28;20057;-75
2022/07/12 06:33:15;;;;;;;4.13;3.00;;;;;;;;;;5016332;28;20510;-76
2022/07/12 06:35:41;;;;;;;3.28;2.88;;;;;;;;;;5016195;28;20068;-77
2022/07/12 06:38:07;;;;;;;4.10;2.97;;;;;;;;;;5015638;28;20086;-75
2022/07/12 06:40:33;;;;;;;3.95;2.78;;;;;;;;;;5012476;28;20056;-76
2022/07/12 06:42:59;;;;;;;2.85;2.53;;;;;;;;;;5011626;28;20050;-74
2022/07/12 06:45:26;;;;;;;6.70;3.20;;;;;;;;;;5026930;28;20076;-74
2022/07/12 06:47:52;;;;;;;4.00;3.20;;;;;;;;;;5021886;28;20045;-74
2022/07/12 06:50:18;;;;;;;4.80;3.20;;;;;;;;;;5016030;28;20121;-76
2022/07/12 06:52:45;;;;;;;3.65;2.85;;;;;;;;;;5011181;28;20045;-75
2022/07/12 06:55:11;;;;;;;5.20;3.13;;;;;;;;;;5018036;28;20037;-77
2022/07/12 06:57:37;;;;;;;4.18;3.20;;;;;;;;;;4999431;28;20045;-77
2022/07/12 07:00:04;;;;;;;4.72;2.97;;;;;;;;;;5020707;28;20080;-77
2022/07/12 07:02:31;;;;;;;5.55;3.75;;;;;;;;;;5006627;28;20045;-77
2022/07/12 07:04:57;;;;;;;3.70;3.15;;;;;;;;;;5015266;28;20053;-77
2022/07/12 07:07:23;;;;;;;4.85;3.25;;;;;;;;;;5015113;28;20045;-77
2022/07/12 07:09:49;;;;;;;4.43;3.50;;;;;;;;;;5015121;28;20033;-76
2022/07/12 07:12:15;;;;;;;5.38;3.45;;;;;;;;;;4999140;28;20025;-76
2022/07/12 07:14:41;;;;;;;4.60;3.85;;;;;;;;;;5015561;28;20047;-77
2022/07/12 07:17:08;;;;;;;4.05;3.10;;;;;;;;;;4999252;28;20495;-76
2022/07/12 07:19:34;;;;;;;5.20;3.20;;;;;;;;;;5012170;28;20052;-77
2022/07/12 07:22:00;;;;;;;5.05;3.83;;;;;;;;;;5012236;28;20041;-75
2022/07/12 07:24:26;;;;;;;4.18;3.78;;;;;;;;;;5014591;28;20037;-75
2022/07/12 07:26:52;;;;;;;4.20;3.55;;;;;;;;;;4998557;28;20045;-75
2022/07/12 07:32:03;;;;;;;4.07;3.40;;;;;;;;;;5015015;28;20082;-79
2022/07/12 07:34:29;;;;;;;4.72;3.60;;;;;;;;;;4999391;28;20150;-76
2022/07/12 07:36:55;;;;;;;5.88;4.05;;;;;;;;;;4998605;28;20067;-75
2022/07/12 07:39:21;;;;;;;4.47;3.97;;;;;;;;;;5014517;28;20109;-79
2022/07/12 07:41:47;;;;;;;4.45;4.05;;;;;;;;;;5021874;28;20456;-75
2022/07/12 07:44:13;;;;;;;5.45;3.90;;;;;;;;;;5015177;28;20048;-77
2022/07/12 07:46:39;;;;;;;4.82;4.10;;;;;;;;;;5007412;28;20073;-77
2022/07/12 07:49:05;;;;;;;5.20;4.22;;;;;;;;;;4994540;28;20487;-75
2022/07/12 07:51:31;;;;;;;6.53;4.07;;;;;;;;;;5014294;28;20037;-74
2022/07/12 07:53:57;;;;;;;4.85;4.15;;;;;;;;;;5014300;28;20046;-78
2022/07/12 07:56:23;;;;;;;5.03;4.05;;;;;;;;;;5015163;28;20045;-78
2022/07/12 07:58:51;;;;;;;5.10;3.90;;;;;;;;;;5013540;28;20041;-78
2022/07/12 08:01:17;;;;;;;4.60;3.83;;;;;;;;;;5025215;28;20037;-76
2022/07/12 08:03:43;;;;;;;4.80;3.80;;;;;;;;;;5010706;28;20052;-77
2022/07/12 08:06:10;;;;;;;5.40;4.18;;;;;;;;;;5007778;28;20048;-76
2022/07/12 08:08:36;;;;;;;4.85;3.70;;;;;;;;;;5010423;28;20045;-77
2022/07/12 08:11:02;;;;;;;4.68;3.92;;;;;;;;;;5021406;28;20116;-78
2022/07/12 08:13:28;;;;;;;4.93;3.60;;;;;;;;;;5013766;28;20483;-77
2022/07/12 08:15:54;;;;;;;5.07;3.60;;;;;;;;;;5014504;28;20041;-84
2022/07/12 08:18:21;;;;;;;4.55;3.60;;;;;;;;;;4998297;28;20041;-83
2022/07/12 08:20:47;;;;;;;5.72;3.50;;;;;;;;;;5004717;28;20050;-83
2022/07/12 08:23:13;;;;;;;4.28;3.50;;;;;;;;;;5032215;28;20044;-83
2022/07/12 08:25:39;;;;;;;4.55;3.75;;;;;;;;;;4984171;28;20041;-83
2022/07/12 08:28:05;;;;;;;4.03;3.63;;;;;;;;;;5013936;28;20045;-82
2022/07/12 08:30:31;;;;;;;3.92;3.45;;;;;;;;;;4999760;28;20033;-82
2022/07/12 08:32:57;;;;;;;5.05;3.60;;;;;;;;;;5025288;28;20079;-84
2022/07/12 08:35:24;;;;;;;4.30;3.75;;;;;;;;;;5016068;28;20045;-83
2022/07/12 08:37:50;;;;;;;4.55;3.45;;;;;;;;;;5009894;28;20150;-82
2022/07/12 08:40:16;;;;;;;5.10;3.83;;;;;;;;;;4997855;28;20045;-79
2022/07/12 08:42:42;;;;;;;4.35;3.70;;;;;;;;;;5002559;28;20037;-80
2022/07/12 08:45:09;;;;;;;5.90;3.92;;;;;;;;;;5015523;28;20038;-82
2022/07/12 08:47:36;;;;;;;4.95;3.30;;;;;;;;;;5022671;28;20044;-81
2022/07/12 08:50:22;;;;;;;4.50;3.47;;;;;;;;;;5031104;28;20076;-83
2022/07/12 08:52:53;;;;;;;3.50;3.05;;;;;;;;;;5031358;28;20049;-82
2022/07/12 08:55:20;;;;;;;4.35;3.70;;;;;;;;;;5014206;28;20037;-82
2022/07/12 08:57:47;;;;;;;5.03;4.10;;;;;;;;;;5013689;28;20060;-82
2022/07/12 09:00:13;;;;;;;4.65;3.75;;;;;;;;;;5014089;28;20457;-83
2022/07/12 09:03:07;;;;;;;4.35;3.70;;;;;;;;;;5024959;28;20037;-85
2022/07/12 09:05:33;;;;;;;5.75;3.58;;;;;;;;;;5012393;28;20148;-83
2022/07/12 09:08:07;;;;;;;4.28;3.72;;;;;;;;;;5018333;28;20054;-73
2022/07/12 09:10:48;;;;;;;3.83;3.03;;;;;;;;;;5013787;28;20576;-79
2022/07/12 09:13:14;;;;;;;4.15;2.95;;;;;;;;;;5013860;28;20099;-80
2022/07/12 09:15:40;;;;;;;3.97;3.33;;;;;;;;;;4997272;28;20030;-80
2022/07/12 09:18:15;;;;;;;3.90;3.40;;;;;;;;;;5012524;28;20048;-79
2022/07/12 09:20:42;;;;;;;4.25;3.38;;;;;;;;;;5022980;28;20080;-79
2022/07/12 09:23:09;;;;;;;4.28;3.38;;;;;;;;;;5023855;28;20370;-79
2022/07/12 09:25:36;;;;;;;5.13;3.72;;;;;;;;;;4996046;28;20046;-79
2022/07/12 09:28:06;;;;;;;4.93;3.40;;;;;;;;;;5020410;28;20136;-76
2022/07/12 09:30:32;;;;;;;5.20;3.70;;;;;;;;;;5021188;28;20041;-79
2022/07/12 09:36:12;;;;;;;5.07;3.63;;;;;;;;;;5031267;28;20041;-79
2022/07/12 09:39:01;;;;;;;3.45;2.92;;;;;;;;;;5020632;28;20045;-77
2022/07/12 09:41:28;;;;;;;4.47;3.90;;;;;;;;;;5016311;28;20044;-78
2022/07/12 09:43:54;;;;;;;4.20;3.67;;;;;;;;;;5004699;28;20042;-78
2022/07/12 09:46:20;;;;;;;3.70;3.33;;;;;;;;;;5022070;28;20056;-78
2022/07/12 09:48:46;;;;;;;4.60;4.00;;;;;;;;;;5007250;28;20053;-78
2022/07/12 09:51:17;;;;;;;4.25;3.75;;;;;;;;;;5018557;28;20156;-79
2022/07/12 09:53:51;;;;;;;4.45;3.40;;;;;;;;;;5027710;28;20119;-78
2022/07/12 09:56:20;;;;;;;4.07;2.90;;;;;;;;;;5024339;28;20076;-78
2022/07/12 09:58:53;;;;;;;3.90;3.35;;;;;;;;;;4986436;28;20037;-74
2022/07/12 10:01:19;;;;;;;3.58;2.50;;;;;;;;;;5016685;28;20037;-78
2022/07/12 10:03:46;;;;;;;4.85;2.80;;;;;;;;;;5031935;28;20053;-78
2022/07/12 10:06:14;;;;;;;4.18;3.00;;;;;;;;;;5016550;28;20061;-76
2022/07/12 10:08:40;;;;;;;2.80;2.30;;;;;;;;;;5033758;28;20092;-76
2022/07/12 10:11:07;;;;;;;3.03;2.08;;;;;;;;;;5020332;28;20490;-77
2022/07/12 10:13:33;;;;;;;2.95;1.90;;;;;;;;;;5012934;28;20048;-78
2022/07/12 10:16:00;;;;;;;3.08;2.38;;;;;;;;;;5019710;28;20037;-78
2022/07/12 10:18:27;;;;;;;4.00;2.25;;;;;;;;;;5027502;28;20044;-78
2022/07/12 10:20:53;;;;;;;4.20;2.42;;;;;;;;;;5001506;28;20049;-77
2022/07/12 10:23:28;;;;;;;2.90;2.00;;;;;;;;;;5018232;28;20049;-77
2022/07/12 10:25:54;;;;;;;3.58;2.38;;;;;;;;;;5022189;28;20056;-77
2022/07/12 10:28:20;;;;;;;3.95;2.00;;;;;;;;;;5015966;28;20045;-77
2022/07/12 10:30:47;;;;;;;3.28;2.75;;;;;;;;;;5017702;28;20497;-74
2022/07/12 10:33:19;;;;;;;3.88;2.15;;;;;;;;;;4999948;28;20037;-77
2022/07/12 10:36:02;;;;;;;3.50;2.60;;;;;;;;;;5016823;28;20033;-76
2022/07/12 10:38:29;;;;;;;3.00;2.30;;;;;;;;;;5015742;28;20049;-77
2022/07/12 10:40:55;;;;;;;2.83;1.90;;;;;;;;;;5000996;28;20568;-77
2022/07/12 10:44:04;;;;;;;5.15;1.80;;;;;;;;;;5017559;28;20045;-77
2022/07/12 10:46:17;;;;;;;3.38;1.95;;;;;;;;;;5020203;28;20060;-77
2022/07/12 10:48:43;;;;;;;3.63;2.25;;;;;;;;;;5018900;28;20171;-76
2022/07/12 10:51:16;;;;;;;3.00;2.30;;;;;;;;;;5044933;28;20537;-77
2022/07/12 10:53:45;;;;;;;4.45;2.33;;;;;;;;;;5018838;28;20049;-78
2022/07/12 10:56:22;;;;;;;4.32;2.80;;;;;;;;;;5033179;28;20037;-78
2022/07/12 10:58:48;;;;;;;7.78;3.05;;;;;;;;;;5016142;28;20052;-78
2022/07/12 11:01:17;;;;;;;9.95;3.00;;;;;;;;;;5017985;28;20547;-82
2022/07/12 11:03:45;;;;;;;3.13;2.63;;;;;;;;;;5015274;28;20049;-82
2022/07/12 11:06:12;;;;;;;4.15;2.20;;;;;;;;;;5014608;28;20037;-83
2022/07/12 11:08:59;;;;;;;8.40;2.35;;;;;;;;;;4999714;28;20042;-83
2022/07/12 11:11:26;;;;;;;3.95;2.38;;;;;;;;;;5004216;28;20042;-83
2022/07/12 11:13:53;;;;;;;4.40;2.65;;;;;;;;;;4999551;28;20045;-82
2022/07/12 11:16:19;;;;;;;7.38;2.65;;;;;;;;;;5000169;28;20040;-83
2022/07/12 11:18:45;;;;;;;5.35;2.60;;;;;;;;;;5015949;28;20041;-80
2022/07/12 11:21:11;;;;;;;2.67;1.73;;;;;;;;;;5015442;28;20041;-82
2022/07/12 11:23:40;;;;;;;3.90;1.80;;;;;;;;;;4989189;28;20037;-82
2022/07/12 11:26:07;;;;;;;3.97;1.60;;;;;;;;;;5028950;28;20048;-82
2022/07/12 11:28:33;;;;;;;3.05;1.65;;;;;;;;;;5014389;28;20074;-82
2022/07/12 11:31:04;;;;;;;10.52;2.33;;;;;;;;;;5004477;28;20049;-84
2022/07/12 11:33:34;;;;;;;24.20;2.72;;;;;;;;;;4982865;28;20045;-82
2022/07/12 11:36:01;;;;;;;4.13;1.50;;;;;;;;;;5012166;28;20053;-82
2022/07/12 11:38:27;;;;;;;6.32;1.27;;;;;;;;;;4996230;28;20427;-79
2022/07/12 11:40:57;;;;;;;13.93;1.85;;;;;;;;;;4996055;28;20051;-76
2022/07/12 11:43:25;;;;;;;3.33;1.10;;;;;;;;;;4995336;28;20041;-75
2022/07/12 11:45:51;;;;;;;3.05;1.20;;;;;;;;;;4995040;28;20052;-79
2022/07/12 11:48:18;;;;;;;4.57;1.30;;;;;;;;;;4997770;28;20046;-75
2022/07/12 11:50:44;;;;;;;4.32;1.80;;;;;;;;;;5003402;28;20092;-77
2022/07/12 11:53:21;;;;;;;3.45;1.40;;;;;;;;;;4995141;28;20124;-76
2022/07/12 11:55:48;;;;;;;7.18;1.60;;;;;;;;;;5011629;28;20037;-79
2022/07/12 11:58:15;;;;;;;8.38;1.30;;;;;;;;;;4994881;28;20558;-75
2022/07/12 12:00:41;;;;;;;2.00;1.10;;;;;;;;;;5011144;28;20046;-76
2022/07/12 12:03:07;;;;;;;3.67;1.40;;;;;;;;;;4995358;28;20049;-76
2022/07/12 12:05:34;;;;;;;3.60;1.15;;;;;;;;;;4966567;28;20042;-75
2022/07/12 12:08:00;;;;;;;1.83;1.10;;;;;;;;;;4997768;28;20053;-76
2022/07/12 12:10:27;;;;;;;2.05;1.00;;;;;;;;;;5008863;28;20074;-76
2022/07/12 12:12:54;;;;;;;3.30;1.00;;;;;;;;;;5011021;28;20044;-77
2022/07/12 12:15:21;;;;;;;3.35;1.10;;;;;;;;;;4994587;28;20372;-83
2022/07/12 12:17:52;;;;;;;3.58;1.00;;;;;;;;;;4994915;28;20038;-79
2022/07/12 12:20:19;;;;;;;3.05;1.30;;;;;;;;;;4993963;28;20065;-83
2022/07/12 12:22:46;;;;;;;3.45;1.10;;;;;;;;;;4995371;28;20046;-85
2022/07/12 12:25:15;;;;;;;3.45;1.10;;;;;;;;;;4997429;28;20065;-85
2022/07/12 12:27:45;;;;;;;4.50;1.10;;;;;;;;;;4981394;28;20052;-85
2022/07/12 12:30:12;;;;;;;1.58;0.90;;;;;;;;;;4998109;28;20432;-84
2022/07/12 12:32:47;;;;;;;5.28;1.05;;;;;;;;;;5035132;28;20049;-85
2022/07/12 12:35:15;;;;;;;1.48;0.80;;;;;;;;;;5025574;28;20095;-87
2022/07/12 12:37:41;;;;;;;3.28;1.00;;;;;;;;;;5024399;28;20095;-85
2022/07/12 12:40:07;;;;;;;2.28;0.93;;;;;;;;;;5024386;28;20045;-86
2022/07/12 12:42:34;;;;;;;4.32;1.20;;;;;;;;;;5011119;28;20041;-77
2022/07/12 12:45:00;;;;;;;2.17;1.00;;;;;;;;;;5007043;28;20547;-77
2022/07/12 12:47:33;;;;;;;3.75;1.27;;;;;;;;;;5013564;28;20170;-77
2022/07/12 12:50:02;;;;;;;6.13;1.20;;;;;;;;;;5014380;28;20483;-77
2022/07/12 12:52:31;;;;;;;3.50;0.80;;;;;;;;;;5008758;28;20051;-77
2022/07/12 12:54:58;;;;;;;1.75;0.90;;;;;;;;;;5014034;28;20038;-77
2022/07/12 12:57:25;;;;;;;4.60;0.90;;;;;;;;;;5013994;28;20069;-76
2022/07/12 12:59:52;;;;;;;1.95;0.85;;;;;;;;;;5017025;28;20047;-76
2022/07/12 13:02:20;;;;;;;3.25;1.00;;;;;;;;;;5018698;28;20398;-76
2022/07/12 13:04:46;;;;;;;2.95;1.17;;;;;;;;;;5011355;28;20497;-77
2022/07/12 13:07:12;;;;;;;3.08;1.00;;;;;;;;;;5000757;28;20042;-75
2022/07/12 13:09:38;;;;;;;2.88;0.70;;;;;;;;;;5017029;28;20037;-83
2022/07/12 13:12:05;;;;;;;4.57;1.33;;;;;;;;;;5017638;28;20040;-77
2022/07/12 13:14:31;;;;;;;1.83;0.80;;;;;;;;;;5013410;28;20486;-78
2022/07/12 13:16:57;;;;;;;1.92;0.75;;;;;;;;;;5001129;28;20048;-77
2022/07/12 13:19:23;;;;;;;15.68;1.88;;;;;;;;;;5017685;28;20041;-77
2022/07/12 13:21:49;;;;;;;4.82;1.40;;;;;;;;;;5010774;28;20128;-77
2022/07/12 13:24:15;;;;;;;3.75;1.10;;;;;;;;;;5003528;28;20456;-77
2022/07/12 13:26:41;;;;;;;3.45;1.30;;;;;;;;;;5018288;28;20043;-77
2022/07/12 13:29:07;;;;;;;4.35;1.00;;;;;;;;;;5018166;28;20048;-77
2022/07/12 13:31:33;;;;;;;13.43;3.10;;;;;;;;;;5017571;28;20100;-77
2022/07/12 13:33:59;;;;;;;25.77;3.30;;;;;;;;;;5039925;28;20045;-77
2022/07/12 13:36:26;;;;;;;275.17;45.28;;;;;;;;;;5017308;28;20133;-78
2022/07/12 13:38:52;;;;;;;5.45;1.90;;;;;;;;;;5023889;28;20512;-78
2022/07/12 13:41:18;;;;;;;3.13;1.50;;;;;;;;;;5021419;28;20038;-78
2022/07/12 13:43:44;;;;;;;3.22;1.50;;;;;;;;;;5013590;28;20046;-77
2022/07/12 13:46:10;;;;;;;2.63;1.35;;;;;;;;;;5034380;28;20069;-77
2022/07/12 13:48:36;;;;;;;2.80;1.27;;;;;;;;;;5015264;28;20103;-76
2022/07/12 13:51:02;;;;;;;2.95;1.40;;;;;;;;;;5016741;28;20055;-77
2022/07/12 13:53:28;;;;;;;2.00;1.23;;;;;;;;;;4996118;28;20045;-76
2022/07/12 13:55:55;;;;;;;3.08;1.30;;;;;;;;;;5003632;28;20484;-76
2022/07/12 13:58:21;;;;;;;3.33;1.02;;;;;;;;;;5009113;28;20037;-77
2022/07/12 14:00:47;;;;;;;2.60;1.15;;;;;;;;;;5034108;28;20057;-77
2022/07/12 14:03:13;;;;;;;2.30;1.10;;;;;;;;;;5031279;28;20041;-78
2022/07/12 14:05:39;;;;;;;3.25;1.10;;;;;;;;;;5008358;28;20048;-77
2022/07/12 14:08:05;;;;;;;1.90;1.13;;;;;;;;;;5010306;28;20383;-77
2022/07/12 14:10:33;;;;;;;3.15;1.20;;;;;;;;;;4995875;28;20049;-77
2022/07/12 14:12:59;;;;;;;3.80;1.10;;;;;;;;;;5013010;28;20045;-76
2022/07/12 14:15:37;;;;;;;5.85;1.38;;;;;;;;;;5013852;28;20066;-79
2022/07/12 14:18:05;;;;;;;4.20;1.33;;;;;;;;;;5040604;28;20072;-78
2022/07/12 14:20:32;;;;;;;4.22;1.40;;;;;;;;;;5027431;28;20494;-76
2022/07/12 14:22:58;;;;;;;3.38;1.30;;;;;;;;;;5016597;28;20038;-76
2022/07/12 14:25:24;;;;;;;4.78;1.42;;;;;;;;;;5003026;28;20502;-76
2022/07/12 14:27:50;;;;;;;2.38;1.20;;;;;;;;;;5018992;28;20033;-77
2022/07/12 14:30:17;;;;;;;2.53;1.50;;;;;;;;;;5026075;28;20044;-77
2022/07/12 14:32:43;;;;;;;3.20;1.33;;;;;;;;;;5014116;28;20049;-77
2022/07/12 14:35:10;;;;;;;2.10;1.20;;;;;;;;;;5016473;28;20048;-76
2022/07/12 14:37:36;;;;;;;4.05;1.30;;;;;;;;;;5018059;28;20103;-76
2022/07/12 14:40:05;;;;;;;2.97;1.42;;;;;;;;;;5021479;28;20033;-77
2022/07/12 14:42:32;;;;;;;2.22;1.30;;;;;;;;;;5018536;28;20042;-78
2022/07/12 14:44:58;;;;;;;2.88;1.30;;;;;;;;;;5016123;28;20041;-77
2022/07/12 14:47:25;;;;;;;4.10;1.17;;;;;;;;;;5014528;28;20041;-77
2022/07/12 14:49:54;;;;;;;2.35;1.20;;;;;;;;;;5030577;28;20136;-77
2022/07/12 14:52:20;;;;;;;2.58;1.20;;;;;;;;;;5016136;28;20049;-77